createdAt,value
2019-05-06T00:00:26.157Z,69.93
2019-05-06T00:02:54.828Z,69.96
2019-05-06T00:05:25.336Z,69.98
2019-05-06T00:07:54.715Z,69.98
2019-05-06T00:10:26.907Z,70.16
2019-05-06T00:12:56.553Z,69.76
2019-05-06T00:15:25.265Z,69.89
2019-05-06T00:17:54.087Z,69.40
2019-05-06T00:20:24.392Z,69.41
2019-05-06T00:22:55.010Z,70.23
2019-05-06T00:25:25.305Z,70.38
2019-05-06T00:28:13.239Z,70.25
2019-05-06T00:30:45.311Z,68.91
2019-05-06T00:33:13.968Z,69.10
2019-05-06T00:35:44.940Z,69.68
2019-05-06T00:38:13.898Z,69.47
2019-05-06T00:40:50.443Z,70.28
2019-05-06T00:43:24.269Z,69.71
2019-05-06T00:45:53.649Z,68.65
2019-05-06T00:48:24.412Z,66.62
2019-05-06T00:50:53.636Z,67.31
2019-05-06T00:53:24.147Z,67.91
2019-05-06T00:55:53.802Z,67.84
2019-05-06T00:58:23.861Z,67.20
2019-05-06T01:00:54.342Z,67.03
2019-05-06T01:03:23.919Z,68.32
2019-05-06T01:05:54.166Z,69.13
2019-05-06T01:08:24.000Z,69.67
2019-05-06T01:10:54.568Z,70.17
2019-05-06T01:13:35.104Z,70.25
2019-05-06T01:16:04.255Z,69.58
2019-05-06T01:18:34.078Z,69.20
2019-05-06T01:21:11.615Z,69.46
2019-05-06T01:23:43.927Z,69.32
2019-05-06T01:26:15.176Z,69.58
2019-05-06T01:28:45.262Z,69.38
2019-05-06T01:31:14.377Z,69.36
2019-05-06T01:33:45.028Z,69.71
2019-05-06T01:36:14.117Z,69.99
2019-05-06T01:38:53.645Z,70.34
2019-05-06T01:41:30.191Z,70.11
2019-05-06T01:43:58.837Z,70.59
2019-05-06T01:46:27.484Z,70.44
2019-05-06T01:48:56.106Z,70.17
2019-05-06T01:51:24.746Z,68.73
2019-05-06T01:53:54.360Z,69.03
2019-05-06T01:56:25.028Z,69.47
2019-05-06T01:58:55.310Z,69.71
2019-05-06T02:01:25.081Z,69.54
2019-05-06T02:03:54.090Z,69.09
2019-05-06T02:06:24.799Z,69.10
2019-05-06T02:08:54.842Z,68.40
2019-05-06T02:11:24.937Z,68.44
2019-05-06T02:13:53.923Z,66.47
2019-05-06T02:16:24.245Z,67.30
2019-05-06T02:18:54.041Z,66.46
2019-05-06T02:21:30.315Z,68.08
2019-05-06T02:24:04.254Z,69.84
2019-05-06T02:26:34.563Z,69.12
2019-05-06T02:29:05.692Z,70.84
2019-05-06T02:31:49.135Z,70.26
2019-05-06T02:34:25.133Z,71.48
2019-05-06T02:37:09.632Z,72.41
2019-05-06T02:39:38.290Z,71.32
2019-05-06T02:42:08.470Z,71.00
2019-05-06T02:44:37.131Z,71.06
2019-05-06T02:47:13.823Z,71.13
2019-05-06T02:49:46.260Z,71.03
2019-05-06T02:52:14.910Z,70.91
2019-05-06T02:54:43.735Z,70.62
2019-05-06T02:57:13.152Z,70.58
2019-05-06T02:59:44.096Z,69.92
2019-05-06T03:02:14.040Z,68.54
2019-05-06T03:04:43.764Z,69.40
2019-05-06T03:07:14.451Z,69.07
2019-05-06T03:09:44.571Z,70.36
2019-05-06T03:12:13.940Z,70.03
2019-05-06T03:14:43.661Z,69.90
2019-05-06T03:17:14.018Z,69.48
2019-05-06T03:19:46.217Z,69.80
2019-05-06T03:22:16.510Z,70.28
2019-05-06T03:24:48.267Z,68.86
2019-05-06T03:27:17.037Z,70.03
2019-05-06T03:29:45.690Z,69.62
2019-05-06T03:32:21.378Z,69.55
2019-05-06T03:35:00.738Z,66.76
2019-05-06T03:37:16.801Z,68.99
2019-05-06T03:39:45.427Z,69.73
2019-05-06T03:42:16.600Z,67.84
2019-05-06T03:44:45.946Z,67.83
2019-05-06T03:47:34.527Z,68.23
2019-05-06T03:50:04.648Z,68.06
2019-05-06T03:52:34.157Z,69.08
2019-05-06T03:55:04.173Z,68.87
2019-05-06T03:57:36.270Z,67.29
2019-05-06T04:00:05.158Z,67.81
2019-05-06T04:02:34.102Z,68.00
2019-05-06T04:05:03.888Z,68.79
2019-05-06T04:07:34.175Z,69.13
2019-05-06T04:10:03.861Z,68.71
2019-05-06T04:12:34.892Z,69.44
2019-05-06T04:15:04.440Z,69.48
2019-05-06T04:17:35.206Z,69.72
2019-05-06T04:20:23.807Z,68.51
2019-05-06T04:22:57.069Z,67.74
2019-05-06T04:25:43.488Z,67.90
2019-05-06T04:28:17.071Z,67.56
2019-05-06T04:30:46.418Z,67.66
2019-05-06T04:33:17.604Z,68.75
2019-05-06T04:35:46.605Z,68.43
2019-05-06T04:38:15.253Z,67.82
2019-05-06T04:40:44.218Z,67.81
2019-05-06T04:43:13.694Z,69.09
2019-05-06T04:45:43.276Z,67.79
2019-05-06T04:48:14.278Z,68.04
2019-05-06T04:50:44.362Z,67.43
2019-05-06T04:53:13.862Z,68.42
2019-05-06T04:55:45.265Z,67.94
2019-05-06T04:58:14.016Z,67.43
2019-05-06T05:00:44.415Z,67.20
2019-05-06T05:03:14.255Z,68.12
2019-05-06T05:05:44.843Z,67.67
2019-05-06T05:08:14.426Z,67.75
2019-05-06T05:10:55.215Z,67.84
2019-05-06T05:13:32.914Z,67.24
2019-05-06T05:16:13.646Z,66.49
2019-05-06T05:18:47.006Z,65.77
2019-05-06T05:21:15.643Z,64.27
2019-05-06T05:23:45.246Z,65.38
2019-05-06T05:26:14.211Z,66.31
2019-05-06T05:28:43.052Z,66.12
2019-05-06T05:31:12.321Z,65.22
2019-05-06T05:33:45.464Z,65.01
2019-05-06T05:36:14.121Z,64.80
2019-05-06T05:38:44.586Z,64.59
2019-05-06T05:41:13.330Z,64.46
2019-05-06T05:43:46.978Z,63.91
2019-05-06T05:46:16.578Z,64.85
2019-05-06T05:49:05.172Z,63.65
2019-05-06T05:51:33.928Z,63.26
2019-05-06T05:54:02.793Z,63.22
2019-05-06T05:56:33.597Z,64.23
2019-05-06T05:59:03.293Z,63.04
2019-05-06T06:01:36.313Z,58.32
2019-05-06T06:04:05.240Z,57.26
2019-05-06T06:06:34.043Z,58.01
2019-05-06T06:09:04.687Z,58.66
2019-05-06T06:11:42.091Z,59.15
2019-05-06T06:14:12.726Z,59.89
2019-05-06T06:16:49.110Z,60.39
2019-05-06T06:19:25.614Z,60.82
2019-05-06T06:22:00.212Z,60.80
2019-05-06T06:24:32.195Z,61.04
2019-05-06T06:27:03.093Z,60.60
2019-05-06T06:29:32.431Z,60.54
2019-05-06T06:32:13.570Z,60.92
2019-05-06T06:34:43.182Z,60.34
2019-05-06T06:37:25.583Z,60.82
2019-05-06T06:39:55.902Z,60.29
2019-05-06T06:42:24.549Z,60.32
2019-05-06T06:44:53.857Z,60.93
2019-05-06T06:47:24.280Z,60.54
2019-05-06T06:49:53.591Z,61.56
2019-05-06T06:52:23.265Z,64.08
2019-05-06T06:54:52.629Z,67.95
2019-05-06T06:57:31.297Z,68.74
2019-05-06T07:00:04.094Z,70.37
2019-05-06T07:02:35.765Z,70.18
2019-05-06T07:08:02.257Z,68.45
2019-05-06T07:10:43.323Z,68.27
2019-05-06T07:13:13.863Z,65.58
2019-05-06T07:15:43.409Z,66.75
2019-05-06T07:18:13.432Z,70.28
2019-05-06T07:20:58.568Z,68.51
2019-05-06T07:23:28.833Z,67.63
2019-05-06T07:25:57.552Z,69.17
2019-05-06T07:28:27.095Z,65.97
2019-05-06T07:30:56.309Z,64.25
2019-05-06T07:33:24.955Z,65.83
2019-05-06T07:35:53.759Z,66.56
2019-05-06T07:38:23.372Z,65.00
2019-05-06T07:40:53.868Z,64.28
2019-05-06T07:43:24.217Z,64.96
2019-05-06T07:45:54.491Z,63.79
2019-05-06T07:48:25.768Z,63.14
2019-05-06T07:50:54.860Z,61.64
2019-05-06T07:53:23.604Z,62.70
2019-05-06T07:55:54.992Z,62.26
2019-05-06T07:58:23.692Z,60.61
2019-05-06T08:00:52.563Z,56.91
2019-05-06T08:03:22.247Z,58.74
2019-05-06T08:05:55.828Z,59.58
2019-05-06T08:08:23.011Z,58.83
2019-05-06T08:10:52.700Z,57.29
2019-05-06T08:13:22.617Z,56.36
2019-05-06T08:15:53.130Z,57.97
2019-05-06T08:18:23.122Z,56.00
2019-05-06T08:20:52.246Z,55.32
2019-05-06T08:23:37.864Z,53.23
2019-05-06T08:26:13.049Z,51.40
2019-05-06T08:28:44.272Z,52.94
2019-05-06T08:31:12.852Z,54.52
2019-05-06T08:33:43.348Z,55.65
2019-05-06T08:39:02.889Z,56.52
2019-05-06T08:41:33.182Z,58.44
2019-05-06T08:44:04.673Z,59.23
2019-05-06T08:46:37.420Z,58.02
2019-05-06T08:49:06.150Z,57.06
2019-05-06T08:51:55.001Z,55.64
2019-05-06T08:54:26.723Z,56.72
2019-05-06T08:56:56.489Z,55.06
2019-05-06T08:59:25.339Z,54.93
2019-05-06T09:01:58.404Z,52.04
2019-05-06T09:04:27.450Z,52.04
2019-05-06T09:07:02.911Z,52.83
2019-05-06T09:09:32.538Z,52.13
2019-05-06T09:12:02.722Z,51.54
2019-05-06T09:14:32.722Z,52.86
2019-05-06T09:17:02.831Z,50.40
2019-05-06T09:19:33.409Z,49.84
2019-05-06T09:22:10.061Z,49.06
2019-05-06T09:24:42.663Z,48.46
2019-05-06T09:27:14.225Z,49.06
2019-05-06T09:29:52.158Z,47.26
2019-05-06T09:32:25.556Z,47.57
2019-05-06T09:34:56.062Z,48.03
2019-05-06T09:37:24.741Z,43.99
2019-05-06T09:39:53.735Z,45.43
2019-05-06T09:42:23.977Z,43.74
2019-05-06T09:44:54.131Z,43.24
2019-05-06T09:47:28.767Z,42.32
2019-05-06T09:49:57.550Z,41.39
2019-05-06T09:52:26.297Z,40.99
2019-05-06T09:55:05.639Z,41.96
2019-05-06T09:57:52.403Z,41.45
2019-05-06T10:00:23.483Z,41.61
2019-05-06T10:02:52.821Z,40.74
2019-05-06T10:05:21.627Z,40.76
2019-05-06T10:07:52.257Z,39.16
2019-05-06T10:10:22.345Z,40.03
2019-05-06T10:12:54.294Z,40.99
2019-05-06T10:15:23.605Z,38.49
2019-05-06T10:17:57.118Z,38.87
2019-05-06T10:20:25.949Z,39.06
2019-05-06T10:22:55.988Z,39.38
2019-05-06T10:25:25.444Z,40.77
2019-05-06T10:27:57.286Z,39.69
2019-05-06T10:30:26.042Z,40.06
2019-05-06T10:33:27.755Z,39.76
2019-05-06T10:35:59.308Z,41.33
2019-05-06T10:38:55.140Z,41.37
2019-05-06T10:41:26.838Z,41.89
2019-05-06T10:44:27.732Z,42.21
2019-05-06T10:46:56.620Z,43.94
2019-05-06T10:49:25.329Z,42.47
2019-05-06T10:52:07.978Z,41.43
2019-05-06T10:54:37.108Z,40.92
2019-05-06T10:57:12.408Z,41.39
2019-05-06T10:59:43.768Z,41.42
2019-05-06T11:02:17.415Z,42.31
2019-05-06T11:04:46.205Z,40.82
2019-05-06T11:07:28.241Z,41.88
2019-05-06T11:09:46.811Z,43.68
2019-05-06T11:12:15.746Z,43.45
2019-05-06T11:14:48.741Z,42.87
2019-05-06T11:17:14.792Z,42.87
2019-05-06T11:19:43.627Z,42.07
2019-05-06T11:22:13.787Z,40.82
2019-05-06T11:25:12.274Z,46.40
2019-05-06T11:27:39.572Z,49.57
2019-05-06T11:36:00.750Z,42.25
2019-05-06T11:41:05.039Z,55.68
2019-05-06T11:43:37.253Z,57.09
2019-05-06T11:46:12.270Z,57.11
2019-05-06T11:48:43.150Z,56.39
2019-05-06T11:51:25.816Z,57.38
2019-05-06T11:53:54.618Z,58.17
2019-05-06T11:56:23.382Z,59.00
2019-05-06T11:58:53.915Z,59.50
2019-05-06T12:04:06.793Z,56.50
2019-05-06T12:06:35.469Z,58.58
2019-05-06T12:09:15.719Z,57.18
2019-05-06T12:11:43.172Z,55.42
2019-05-06T12:14:12.500Z,54.92
2019-05-06T12:16:43.056Z,53.69
2019-05-06T12:19:14.631Z,54.72
2019-05-06T12:21:45.368Z,55.57
2019-05-06T12:24:14.017Z,56.08
2019-05-06T12:26:43.484Z,55.11
2019-05-06T12:29:12.797Z,57.00
2019-05-06T12:31:42.341Z,55.40
2019-05-06T12:34:12.510Z,54.77
2019-05-06T12:36:42.784Z,55.38
2019-05-06T12:39:18.618Z,55.29
2019-05-06T12:42:04.787Z,55.75
2019-05-06T12:44:35.170Z,56.48
2019-05-06T12:47:08.262Z,57.03
2019-05-06T12:49:36.910Z,57.51
2019-05-06T12:52:06.055Z,58.50
2019-05-06T12:54:34.824Z,56.63
2019-05-06T12:57:03.644Z,54.38
2019-05-06T12:59:32.283Z,53.73
2019-05-06T13:02:02.818Z,53.95
2019-05-06T13:04:49.746Z,56.48
2019-05-06T13:07:03.039Z,51.44
2019-05-06T13:09:33.129Z,51.11
2019-05-06T13:12:03.752Z,52.71
2019-05-06T13:14:33.250Z,49.29
2019-05-06T13:17:02.865Z,48.45
2019-05-06T13:19:32.368Z,50.78
2019-05-06T13:22:03.613Z,51.85
2019-05-06T13:24:32.699Z,51.40
2019-05-06T13:27:02.529Z,51.27
2019-05-06T13:29:35.562Z,50.63
2019-05-06T13:32:03.572Z,49.21
2019-05-06T13:41:22.160Z,50.14
2019-05-06T13:43:54.074Z,52.05
2019-05-06T13:46:24.626Z,57.63
2019-05-06T13:49:13.376Z,62.32
2019-05-06T13:51:52.329Z,62.92
2019-05-06T13:54:22.326Z,62.99
2019-05-06T13:56:52.235Z,61.28
2019-05-06T13:59:21.138Z,61.15
2019-05-06T14:01:54.676Z,61.59
2019-05-06T14:04:24.081Z,61.31
2019-05-06T14:09:43.710Z,59.44
2019-05-06T14:12:13.076Z,60.56
2019-05-06T14:17:57.198Z,58.14
2019-05-06T14:20:42.961Z,58.55
2019-05-06T14:23:17.059Z,60.76
2019-05-06T14:25:56.730Z,61.47
2019-05-06T14:28:32.704Z,61.25
2019-05-06T14:31:05.783Z,62.42
2019-05-06T14:33:34.382Z,64.17
2019-05-06T14:36:03.390Z,62.74
2019-05-06T14:38:32.347Z,62.66
2019-05-06T14:41:04.352Z,60.14
2019-05-06T14:43:33.370Z,62.05
2019-05-06T14:46:02.559Z,62.07
2019-05-06T14:48:33.186Z,61.97
2019-05-06T14:51:02.435Z,60.68
2019-05-06T14:53:33.162Z,59.40
2019-05-06T14:56:03.281Z,53.71
2019-05-06T14:58:32.199Z,54.54
2019-05-06T15:01:03.445Z,56.07
2019-05-06T15:03:37.107Z,59.30
2019-05-06T15:06:05.740Z,55.74
2019-05-06T15:08:34.477Z,57.03
2019-05-06T15:11:03.371Z,57.03
2019-05-06T15:13:32.338Z,59.45
2019-05-06T15:16:03.467Z,57.70
2019-05-06T15:18:32.817Z,58.38
2019-05-06T15:21:28.997Z,60.21
2019-05-06T15:23:31.935Z,61.04
2019-05-06T15:26:02.937Z,61.87
2019-05-06T15:28:33.610Z,62.36
2019-05-06T15:31:05.088Z,62.39
2019-05-06T15:33:35.512Z,61.69
2019-05-06T15:36:05.838Z,61.65
2019-05-06T15:38:34.590Z,60.14
2019-05-06T15:41:03.176Z,59.05
2019-05-06T15:43:33.352Z,59.27
2019-05-06T15:46:03.304Z,59.28
2019-05-06T15:48:33.121Z,59.83
2019-05-06T15:51:02.185Z,58.73
2019-05-06T15:53:32.851Z,57.78
2019-05-06T15:56:02.506Z,56.26
2019-05-06T15:58:32.440Z,56.53
2019-05-06T16:01:03.199Z,53.85
2019-05-06T16:03:33.406Z,53.37
2019-05-06T16:06:02.314Z,51.58
2019-05-06T16:08:32.114Z,52.91
2019-05-06T16:11:02.882Z,55.14
2019-05-06T16:13:31.353Z,56.87
2019-05-06T16:16:00.001Z,56.47
2019-05-06T16:18:28.712Z,56.31
2019-05-06T16:20:57.701Z,56.65
2019-05-06T16:23:27.879Z,56.02
2019-05-06T16:25:56.546Z,56.31
2019-05-06T16:28:25.243Z,57.56
2019-05-06T16:30:54.096Z,57.37
2019-05-06T16:33:22.736Z,58.37
2019-05-06T16:35:52.239Z,57.46
2019-05-06T16:38:23.013Z,55.66
2019-05-06T16:41:02.127Z,57.11
2019-05-06T16:43:22.326Z,56.40
2019-05-06T16:45:53.201Z,56.78
2019-05-06T16:48:22.604Z,56.53
2019-05-06T16:50:51.667Z,55.23
2019-05-06T16:53:20.231Z,56.57
2019-05-06T16:55:56.637Z,56.53
2019-05-06T16:58:32.158Z,55.73
2019-05-06T17:01:00.556Z,56.84
2019-05-06T17:03:32.929Z,58.02
2019-05-06T17:06:14.897Z,58.98
2019-05-06T17:08:43.632Z,59.55
2019-05-06T17:11:24.320Z,60.09
2019-05-06T17:13:44.650Z,59.38
2019-05-06T17:16:13.968Z,59.65
2019-05-06T17:18:42.680Z,59.24
2019-05-06T17:21:13.085Z,58.40
2019-05-06T17:23:42.441Z,59.49
2019-05-06T17:26:12.799Z,58.27
2019-05-06T17:28:43.456Z,59.37
2019-05-06T17:31:28.788Z,59.34
2019-05-06T17:34:04.844Z,60.78
2019-05-06T17:36:35.180Z,59.45
2019-05-06T17:39:06.841Z,60.69
2019-05-06T17:41:45.970Z,61.94
2019-05-06T17:44:07.146Z,62.20
2019-05-06T17:46:49.229Z,62.91
2019-05-06T17:49:23.628Z,63.51
2019-05-06T17:52:02.949Z,62.87
2019-05-06T17:54:32.632Z,62.24
2019-05-06T17:57:03.838Z,62.95
2019-05-06T17:59:33.154Z,62.27
2019-05-06T18:02:05.062Z,62.53
2019-05-06T18:04:34.451Z,61.96
2019-05-06T18:07:03.137Z,61.26
2019-05-06T18:09:33.109Z,61.87
2019-05-06T18:12:03.277Z,61.55
2019-05-06T18:14:33.254Z,62.14
2019-05-06T18:17:03.606Z,63.03
2019-05-06T18:19:33.635Z,62.68
2019-05-06T18:22:03.755Z,60.97
2019-05-06T18:24:33.320Z,61.50
2019-05-06T18:27:02.789Z,61.91
2019-05-06T18:29:33.462Z,60.40
2019-05-06T18:32:03.754Z,60.16
2019-05-06T18:34:33.070Z,61.71
2019-05-06T18:37:03.121Z,59.85
2019-05-06T18:39:34.168Z,60.73
2019-05-06T18:42:16.066Z,61.33
2019-05-06T18:44:35.012Z,61.20
2019-05-06T18:47:03.762Z,60.84
2019-05-06T18:49:33.735Z,62.24
2019-05-06T18:52:02.785Z,59.94
2019-05-06T18:54:33.838Z,59.51
2019-05-06T18:57:04.929Z,59.59
2019-05-06T18:59:36.568Z,59.89
2019-05-06T19:02:03.772Z,60.53
2019-05-06T19:04:34.074Z,60.57
2019-05-06T19:07:10.708Z,58.88
2019-05-06T19:09:34.840Z,58.81
2019-05-06T19:12:03.958Z,58.83
2019-05-06T19:14:33.339Z,59.07
2019-05-06T19:17:02.767Z,58.02
2019-05-06T19:19:34.683Z,58.68
2019-05-06T19:22:02.939Z,58.99
2019-05-06T19:24:33.667Z,58.08
2019-05-06T19:27:02.386Z,58.27
2019-05-06T19:29:33.104Z,58.16
2019-05-06T19:32:02.974Z,58.72
2019-05-06T19:34:34.557Z,58.42
2019-05-06T19:37:03.477Z,57.80
2019-05-06T19:39:33.021Z,57.74
2019-05-06T19:42:02.930Z,57.50
2019-05-06T19:44:32.685Z,56.96
2019-05-06T19:47:02.494Z,57.16
2019-05-06T19:49:32.767Z,56.76
2019-05-06T19:52:03.122Z,56.73
2019-05-06T19:54:33.173Z,56.39
2019-05-06T19:57:02.564Z,57.86
2019-05-06T19:59:33.148Z,57.57
2019-05-06T20:02:02.023Z,56.76
2019-05-06T20:04:33.102Z,58.17
2019-05-06T20:07:15.316Z,59.94
2019-05-06T20:10:03.250Z,60.99
2019-05-06T20:12:39.879Z,63.28
2019-05-06T20:15:33.726Z,62.89
2019-05-06T20:18:12.336Z,63.42
2019-05-06T20:20:42.307Z,63.03
2019-05-06T20:23:12.586Z,63.40
2019-05-06T20:25:42.801Z,63.12
2019-05-06T20:28:13.146Z,62.46
2019-05-06T20:30:42.351Z,62.31
2019-05-06T20:33:12.456Z,62.44
2019-05-06T20:35:43.221Z,63.25
2019-05-06T20:38:12.434Z,62.41
2019-05-06T20:40:43.059Z,63.29
2019-05-06T20:43:19.297Z,63.06
2019-05-06T20:45:47.560Z,63.37
2019-05-06T20:48:16.171Z,63.70
2019-05-06T20:50:44.804Z,63.46
2019-05-06T20:53:18.616Z,63.48
2019-05-06T20:55:47.261Z,64.22
2019-05-06T20:58:15.900Z,62.51
2019-05-06T21:00:44.747Z,62.38
2019-05-06T21:03:13.386Z,62.66
2019-05-06T21:05:43.478Z,63.22
2019-05-06T21:08:13.087Z,63.56
2019-05-06T21:10:43.029Z,63.68
2019-05-06T21:13:13.270Z,63.47
2019-05-06T21:15:43.199Z,64.00
2019-05-06T21:18:12.379Z,64.38
2019-05-06T21:20:43.365Z,64.71
2019-05-06T21:23:11.563Z,65.17
2019-05-06T21:25:40.483Z,65.96
2019-05-06T21:28:09.124Z,65.10
2019-05-06T21:30:37.810Z,64.56
2019-05-06T21:33:06.466Z,64.76
2019-05-06T21:35:35.545Z,65.03
2019-05-06T21:38:06.013Z,64.56
2019-05-06T21:40:34.766Z,63.41
2019-05-06T21:43:04.858Z,63.75
2019-05-06T21:45:33.774Z,64.70
2019-05-06T21:48:02.915Z,64.30
2019-05-06T21:50:33.297Z,63.02
2019-05-06T21:53:02.772Z,62.13
2019-05-06T21:55:32.358Z,62.80
2019-05-06T21:58:02.158Z,62.46
2019-05-06T22:00:43.401Z,64.23
2019-05-06T22:03:13.423Z,63.22
2019-05-06T22:05:42.365Z,65.01
2019-05-06T22:08:12.873Z,65.37
2019-05-06T22:10:42.145Z,64.35
2019-05-06T22:13:16.166Z,63.69
2019-05-06T22:15:44.806Z,62.27
2019-05-06T22:18:13.564Z,63.24
2019-05-06T22:21:00.182Z,62.82
2019-05-06T22:23:53.926Z,64.66
2019-05-06T22:26:23.529Z,65.91
2019-05-06T22:28:52.620Z,63.70
2019-05-06T22:31:24.046Z,64.13
2019-05-06T22:33:52.076Z,64.79
2019-05-06T22:36:22.665Z,63.93
2019-05-06T22:38:52.976Z,63.63
2019-05-06T22:41:23.132Z,63.72
2019-05-06T22:44:11.690Z,64.20
2019-05-06T22:46:32.790Z,64.03
2019-05-06T22:49:02.635Z,63.09
2019-05-06T22:51:32.322Z,63.50
2019-05-06T22:54:02.752Z,63.11
2019-05-06T22:56:32.495Z,63.55
2019-05-06T22:59:03.216Z,63.47
2019-05-06T23:01:33.260Z,62.85
2019-05-06T23:04:02.177Z,62.27
2019-05-06T23:06:32.918Z,60.78
2019-05-06T23:09:02.546Z,62.22
2019-05-06T23:11:32.761Z,61.46
2019-05-06T23:14:07.096Z,60.51
2019-05-06T23:16:36.884Z,61.37
2019-05-06T23:19:05.596Z,60.76
2019-05-06T23:21:34.280Z,60.91
2019-05-06T23:24:04.379Z,59.73
2019-05-06T23:26:33.278Z,60.73
2019-05-06T23:29:02.528Z,59.83
2019-05-06T23:31:33.191Z,58.81
2019-05-06T23:34:02.690Z,58.44
2019-05-06T23:36:52.815Z,57.95
2019-05-06T23:39:59.424Z,58.17
2019-05-06T23:43:04.043Z,58.12
2019-05-06T23:46:08.730Z,57.56
2019-05-06T23:49:13.686Z,57.90
2019-05-06T23:52:18.606Z,57.69
2019-05-06T23:55:23.652Z,58.24
2019-05-06T23:57:52.579Z,57.52
